createdAt,value
2023-01-07T00:01:13.544Z,-67
2023-01-07T00:03:41.363Z,-67
2023-01-07T00:06:09.151Z,-67
2023-01-07T00:08:36.939Z,-67
2023-01-07T00:11:04.709Z,-67
2023-01-07T00:13:32.447Z,-67
2023-01-07T00:16:00.495Z,-67
2023-01-07T00:18:28.257Z,-67
2023-01-07T00:20:56.041Z,-67
2023-01-07T00:23:24.530Z,-67
2023-01-07T00:25:52.312Z,-67
2023-01-07T00:28:20.174Z,-67
2023-01-07T00:30:47.935Z,-67
2023-01-07T00:33:16.795Z,-67
2023-01-07T00:35:45.161Z,-67
2023-01-07T00:38:12.919Z,-67
2023-01-07T00:40:40.715Z,-67
2023-01-07T00:43:08.479Z,-67
2023-01-07T00:45:36.335Z,-79
2023-01-07T00:48:04.287Z,-78
2023-01-07T00:50:32.085Z,-78
2023-01-07T00:53:00.020Z,-78
2023-01-07T00:55:27.839Z,-78
2023-01-07T00:57:55.855Z,-79
2023-01-07T01:00:23.661Z,-78
2023-01-07T01:02:51.482Z,-78
2023-01-07T01:05:19.372Z,-78
2023-01-07T01:07:47.124Z,-79
2023-01-07T01:10:14.931Z,-78
2023-01-07T01:12:42.720Z,-78
2023-01-07T01:15:10.517Z,-78
2023-01-07T01:17:38.400Z,-78
2023-01-07T01:20:06.232Z,-78
2023-01-07T01:22:33.998Z,-78
2023-01-07T01:25:01.891Z,-79
2023-01-07T01:27:29.860Z,-79
2023-01-07T01:29:57.769Z,-78
2023-01-07T01:32:25.526Z,-78
2023-01-07T01:34:53.410Z,-78
2023-01-07T01:37:21.202Z,-78
2023-01-07T01:39:49.046Z,-78
2023-01-07T01:42:16.820Z,-78
2023-01-07T01:44:47.700Z,-79
2023-01-07T01:47:15.663Z,-78
2023-01-07T01:49:43.452Z,-79
2023-01-07T01:52:11.260Z,-79
2023-01-07T01:54:39.135Z,-78
2023-01-07T01:57:06.919Z,-78
2023-01-07T01:59:34.680Z,-78
2023-01-07T02:05:11.745Z,-66
2023-01-07T02:07:39.506Z,-66
2023-01-07T02:10:07.410Z,-66
2023-01-07T02:12:35.149Z,-66
2023-01-07T02:15:02.960Z,-66
2023-01-07T02:17:30.923Z,-65
2023-01-07T02:19:58.712Z,-66
2023-01-07T02:22:26.467Z,-66
2023-01-07T02:24:54.357Z,-64
2023-01-07T02:27:22.173Z,-65
2023-01-07T02:29:49.961Z,-66
2023-01-07T02:32:17.768Z,-66
2023-01-07T02:34:45.532Z,-66
2023-01-07T02:37:13.473Z,-65
2023-01-07T02:39:41.273Z,-66
2023-01-07T02:42:09.021Z,-66
2023-01-07T02:44:36.870Z,-65
2023-01-07T02:47:04.673Z,-65
2023-01-07T02:49:32.400Z,-65
2023-01-07T02:52:00.161Z,-66
2023-01-07T02:54:27.921Z,-66
2023-01-07T02:56:55.714Z,-66
2023-01-07T02:59:23.473Z,-66
2023-01-07T03:01:51.373Z,-65
2023-01-07T03:04:19.346Z,-66
2023-01-07T03:06:47.212Z,-65
2023-01-07T03:09:15.066Z,-66
2023-01-07T03:11:42.866Z,-66
2023-01-07T03:14:10.820Z,-66
2023-01-07T03:16:38.894Z,-66
2023-01-07T03:19:06.713Z,-66
2023-01-07T03:21:34.962Z,-65
2023-01-07T03:24:02.848Z,-65
2023-01-07T03:26:30.726Z,-66
2023-01-07T03:28:58.915Z,-66
2023-01-07T03:31:26.792Z,-66
2023-01-07T03:33:54.608Z,-66
2023-01-07T03:36:22.501Z,-65
2023-01-07T03:38:50.273Z,-66
2023-01-07T03:41:31.933Z,-65
2023-01-07T03:43:59.739Z,-65
2023-01-07T03:46:27.497Z,-66
2023-01-07T03:48:55.285Z,-66
2023-01-07T03:51:23.114Z,-65
2023-01-07T03:53:50.916Z,-65
2023-01-07T03:56:18.711Z,-66
2023-01-07T03:58:46.455Z,-66
2023-01-07T04:01:14.225Z,-66
2023-01-07T04:03:42.109Z,-65
2023-01-07T04:06:09.840Z,-65
2023-01-07T04:08:37.748Z,-65
2023-01-07T04:11:05.473Z,-65
2023-01-07T04:13:33.274Z,-65
2023-01-07T04:16:01.014Z,-66
2023-01-07T04:18:28.785Z,-65
2023-01-07T04:20:56.518Z,-66
2023-01-07T04:23:24.339Z,-65
2023-01-07T04:25:52.144Z,-65
2023-01-07T04:28:19.964Z,-66
2023-01-07T04:30:47.888Z,-65
2023-01-07T04:33:15.717Z,-65
2023-01-07T04:35:43.506Z,-65
2023-01-07T04:38:11.986Z,-65
2023-01-07T04:40:39.766Z,-65
2023-01-07T04:43:07.588Z,-65
2023-01-07T04:45:35.308Z,-65
2023-01-07T04:48:03.079Z,-65
2023-01-07T04:50:30.942Z,-65
2023-01-07T04:52:58.698Z,-65
2023-01-07T04:55:26.540Z,-65
2023-01-07T04:57:54.285Z,-65
2023-01-07T05:00:22.547Z,-65
2023-01-07T05:02:50.318Z,-65
2023-01-07T05:05:18.034Z,-66
2023-01-07T05:07:46.344Z,-65
2023-01-07T05:10:14.089Z,-65
2023-01-07T05:12:41.876Z,-66
2023-01-07T05:15:09.631Z,-65
2023-01-07T05:17:37.466Z,-66
2023-01-07T05:20:05.242Z,-65
2023-01-07T05:22:33.015Z,-65
2023-01-07T05:25:00.799Z,-66
2023-01-07T05:27:28.695Z,-65
2023-01-07T05:29:56.417Z,-65
2023-01-07T05:32:24.176Z,-65
2023-01-07T05:34:51.930Z,-65
2023-01-07T05:37:19.717Z,-66
2023-01-07T05:39:47.526Z,-66
2023-01-07T05:42:15.304Z,-66
2023-01-07T05:44:43.483Z,-66
2023-01-07T05:47:11.387Z,-66
2023-01-07T05:49:39.326Z,-66
2023-01-07T05:52:07.143Z,-66
2023-01-07T05:54:34.892Z,-66
2023-01-07T05:57:02.635Z,-66
2023-01-07T05:59:30.377Z,-66
2023-01-07T06:01:58.184Z,-66
2023-01-07T06:04:26.033Z,-66
2023-01-07T06:06:53.815Z,-66
2023-01-07T06:09:22.515Z,-66
2023-01-07T06:11:50.502Z,-67
2023-01-07T06:14:18.267Z,-66
2023-01-07T06:16:46.088Z,-66
2023-01-07T06:19:13.840Z,-66
2023-01-07T06:21:41.664Z,-66
2023-01-07T06:24:09.427Z,-64
2023-01-07T06:26:37.200Z,-64
2023-01-07T06:29:05.195Z,-64
2023-01-07T06:31:33.059Z,-64
2023-01-07T06:34:00.951Z,-64
2023-01-07T06:36:28.739Z,-65
2023-01-07T06:38:56.477Z,-65
2023-01-07T06:41:24.525Z,-64
2023-01-07T06:43:52.326Z,-65
2023-01-07T06:46:20.241Z,-76
2023-01-07T06:48:47.957Z,-76
2023-01-07T06:51:15.725Z,-76
2023-01-07T06:53:43.558Z,-77
2023-01-07T06:56:11.260Z,-79
2023-01-07T06:58:38.958Z,-79
2023-01-07T07:01:06.689Z,-78
2023-01-07T07:03:34.465Z,-78
2023-01-07T07:06:02.333Z,-78
2023-01-07T07:08:30.086Z,-78
2023-01-07T07:10:57.908Z,-80
2023-01-07T07:13:25.595Z,-78
2023-01-07T07:15:53.374Z,-78
2023-01-07T07:18:21.310Z,-77
2023-01-07T07:20:49.071Z,-78
2023-01-07T07:23:16.816Z,-78
2023-01-07T07:25:44.571Z,-78
2023-01-07T07:28:12.340Z,-77
2023-01-07T07:30:46.364Z,-78
2023-01-07T07:33:18.962Z,-78
2023-01-07T07:35:47.083Z,-78
2023-01-07T07:38:14.998Z,-79
2023-01-07T07:40:44.212Z,-78
2023-01-07T07:43:12.978Z,-78
2023-01-07T07:45:41.010Z,-80
2023-01-07T07:48:08.837Z,-78
2023-01-07T07:50:36.613Z,-78
2023-01-07T07:53:04.524Z,-78
2023-01-07T07:55:32.257Z,-78
2023-01-07T07:57:59.959Z,-78
2023-01-07T08:00:27.807Z,-79
2023-01-07T08:02:55.668Z,-80
2023-01-07T08:05:23.503Z,-77
2023-01-07T08:07:51.831Z,-78
2023-01-07T08:10:20.568Z,-77
2023-01-07T08:12:48.324Z,-78
2023-01-07T08:15:16.064Z,-79
2023-01-07T08:17:43.759Z,-79
2023-01-07T08:20:11.481Z,-79
2023-01-07T08:22:39.192Z,-77
2023-01-07T08:25:09.480Z,-77
2023-01-07T08:27:37.195Z,-78
2023-01-07T08:30:04.947Z,-78
2023-01-07T08:32:32.641Z,-81
2023-01-07T08:35:00.343Z,-79
2023-01-07T08:37:28.054Z,-78
2023-01-07T08:39:55.800Z,-78
2023-01-07T08:42:23.532Z,-79
2023-01-07T08:44:51.289Z,-80
2023-01-07T08:47:19.023Z,-78
2023-01-07T08:49:46.757Z,-78
2023-01-07T08:52:14.530Z,-79
2023-01-07T08:54:42.271Z,-78
2023-01-07T08:57:10.323Z,-78
2023-01-07T08:59:39.810Z,-78
2023-01-07T09:02:07.709Z,-78
2023-01-07T09:04:35.511Z,-78
2023-01-07T09:07:03.256Z,-78
2023-01-07T09:09:30.998Z,-78
2023-01-07T09:11:58.716Z,-78
2023-01-07T09:14:26.419Z,-78
2023-01-07T09:16:54.141Z,-81
2023-01-07T09:19:21.947Z,-78
2023-01-07T09:21:51.307Z,-78
2023-01-07T09:24:20.269Z,-78
2023-01-07T09:26:48.042Z,-78
2023-01-07T09:29:15.968Z,-78
2023-01-07T09:31:43.852Z,-78
2023-01-07T09:34:11.696Z,-78
2023-01-07T09:36:39.423Z,-78
2023-01-07T09:39:07.190Z,-80
2023-01-07T09:41:34.912Z,-78
2023-01-07T09:44:04.774Z,-77
2023-01-07T09:46:32.555Z,-77
2023-01-07T09:49:00.302Z,-78
2023-01-07T09:51:28.005Z,-78
2023-01-07T09:53:55.803Z,-78
2023-01-07T09:56:23.643Z,-78
2023-01-07T09:58:51.339Z,-77
2023-01-07T10:01:19.182Z,-78
2023-01-07T10:03:52.012Z,-78
2023-01-07T10:06:38.466Z,-77
2023-01-07T10:09:10.350Z,-78
2023-01-07T10:11:38.266Z,-81
2023-01-07T10:14:06.083Z,-78
2023-01-07T10:16:33.990Z,-78
2023-01-07T10:19:03.825Z,-78
2023-01-07T10:21:31.692Z,-78
2023-01-07T10:24:03.224Z,-78
2023-01-07T10:26:30.995Z,-78
2023-01-07T10:28:58.868Z,-80
2023-01-07T10:31:26.671Z,-77
2023-01-07T10:33:55.821Z,-78
2023-01-07T10:36:23.727Z,-78
2023-01-07T10:38:51.972Z,-77
2023-01-07T10:41:19.848Z,-80
2023-01-07T10:43:47.673Z,-78
2023-01-07T10:46:15.534Z,-78
2023-01-07T10:48:43.464Z,-79
2023-01-07T10:51:11.385Z,-78
2023-01-07T10:53:39.145Z,-77
2023-01-07T10:56:06.959Z,-78
2023-01-07T10:58:34.820Z,-77
2023-01-07T11:01:02.693Z,-78
2023-01-07T11:03:30.571Z,-82
2023-01-07T11:05:58.428Z,-78
2023-01-07T11:08:26.224Z,-78
2023-01-07T11:10:54.001Z,-78
2023-01-07T11:13:21.809Z,-77
2023-01-07T11:15:49.662Z,-77
2023-01-07T11:18:17.584Z,-78
2023-01-07T11:20:45.423Z,-78
2023-01-07T11:23:13.286Z,-78
2023-01-07T11:25:41.104Z,-78
2023-01-07T11:28:12.585Z,-79
2023-01-07T11:30:40.408Z,-78
2023-01-07T11:33:09.147Z,-77
2023-01-07T11:35:37.679Z,-78
2023-01-07T11:38:05.444Z,-78
2023-01-07T11:40:33.315Z,-79
2023-01-07T11:43:01.099Z,-78
2023-01-07T11:45:29.026Z,-77
2023-01-07T11:47:56.839Z,-77
2023-01-07T11:50:24.668Z,-77
2023-01-07T11:52:52.518Z,-78
2023-01-07T11:55:20.331Z,-78
2023-01-07T12:00:43.939Z,-81
2023-01-07T12:03:11.875Z,-77
2023-01-07T12:05:39.646Z,-77
2023-01-07T12:08:07.677Z,-77
2023-01-07T12:10:35.477Z,-78
2023-01-07T12:13:03.266Z,-78
2023-01-07T12:15:31.090Z,-78
2023-01-07T12:17:58.830Z,-78
2023-01-07T12:20:26.635Z,-80
2023-01-07T12:22:59.026Z,-77
2023-01-07T12:25:26.966Z,-78
2023-01-07T12:27:54.707Z,-77
2023-01-07T12:30:22.508Z,-78
2023-01-07T12:32:50.333Z,-78
2023-01-07T12:35:18.453Z,-77
2023-01-07T12:37:46.248Z,-78
2023-01-07T12:40:14.060Z,-78
2023-01-07T12:42:41.882Z,-78
2023-01-07T12:45:09.690Z,-78
2023-01-07T12:47:37.432Z,-79
2023-01-07T12:50:05.419Z,-80
2023-01-07T12:52:33.250Z,-80
2023-01-07T12:55:01.119Z,-80
2023-01-07T12:57:28.968Z,-79
2023-01-07T12:59:56.738Z,-77
2023-01-07T13:02:24.522Z,-77
2023-01-07T13:04:52.510Z,-77
2023-01-07T13:07:20.285Z,-76
2023-01-07T13:09:48.142Z,-78
2023-01-07T13:12:41.497Z,-77
2023-01-07T13:15:10.664Z,-77
2023-01-07T13:17:38.336Z,-78
2023-01-07T13:20:06.096Z,-78
2023-01-07T13:22:33.842Z,-77
2023-01-07T13:25:01.559Z,-77
2023-01-07T13:27:29.335Z,-77
2023-01-07T13:29:58.517Z,-77
2023-01-07T13:32:26.341Z,-75
2023-01-07T13:34:54.081Z,-78
2023-01-07T13:37:21.870Z,-77
2023-01-07T13:39:49.667Z,-77
2023-01-07T13:42:17.939Z,-77
2023-01-07T13:44:45.667Z,-76
2023-01-07T13:47:13.507Z,-78
2023-01-07T13:49:56.370Z,-78
2023-01-07T13:52:24.993Z,-77
2023-01-07T13:54:52.805Z,-77
2023-01-07T13:57:20.540Z,-78
2023-01-07T13:59:48.224Z,-77
2023-01-07T14:02:16.064Z,-78
2023-01-07T14:04:44.550Z,-78
2023-01-07T14:07:12.269Z,-77
2023-01-07T14:09:40.007Z,-80
2023-01-07T14:12:07.752Z,-81
2023-01-07T14:14:35.520Z,-80
2023-01-07T14:17:03.241Z,-80
2023-01-07T14:19:30.971Z,-80
2023-01-07T14:21:58.821Z,-79
2023-01-07T14:24:26.594Z,-79
2023-01-07T14:26:54.313Z,-80
2023-01-07T14:29:22.022Z,-79
2023-01-07T14:31:50.856Z,-79
2023-01-07T14:34:18.616Z,-79
2023-01-07T14:36:46.383Z,-79
2023-01-07T14:39:14.088Z,-79
2023-01-07T14:41:41.873Z,-79
2023-01-07T14:44:09.667Z,-78
2023-01-07T14:46:37.402Z,-80
2023-01-07T14:49:05.496Z,-79
2023-01-07T14:51:33.279Z,-79
2023-01-07T14:54:01.047Z,-79
2023-01-07T14:56:28.758Z,-79
2023-01-07T14:58:57.301Z,-79
2023-01-07T15:01:25.278Z,-80
2023-01-07T15:03:53.087Z,-79
2023-01-07T15:06:20.866Z,-79
2023-01-07T15:09:05.871Z,-79
2023-01-07T15:11:51.068Z,-80
2023-01-07T15:14:36.355Z,-78
2023-01-07T15:17:04.097Z,-80
2023-01-07T15:19:31.841Z,-80
2023-01-07T15:21:59.608Z,-78
2023-01-07T15:24:27.333Z,-77
2023-01-07T15:26:55.061Z,-77
2023-01-07T15:29:22.834Z,-78
2023-01-07T15:31:50.609Z,-78
2023-01-07T15:34:18.319Z,-78
2023-01-07T15:36:46.058Z,-78
2023-01-07T15:39:13.743Z,-78
2023-01-07T15:41:41.461Z,-78
2023-01-07T15:44:09.639Z,-79
2023-01-07T15:46:37.421Z,-79
2023-01-07T15:49:05.214Z,-78
2023-01-07T15:51:32.963Z,-78
2023-01-07T15:54:01.874Z,-79
2023-01-07T15:56:29.550Z,-78
2023-01-07T15:58:57.278Z,-78
2023-01-07T16:01:25.091Z,-79
2023-01-07T16:03:52.917Z,-78
2023-01-07T16:06:20.656Z,-79
2023-01-07T16:08:48.391Z,-79
2023-01-07T16:11:16.109Z,-79
2023-01-07T16:13:43.833Z,-79
2023-01-07T16:16:11.554Z,-79
2023-01-07T16:18:41.264Z,-79
2023-01-07T16:21:08.982Z,-78
2023-01-07T16:23:36.799Z,-80
2023-01-07T16:26:04.512Z,-79
2023-01-07T16:28:32.253Z,-78
2023-01-07T16:31:00.162Z,-76
2023-01-07T16:33:27.945Z,-78
2023-01-07T16:35:55.639Z,-78
2023-01-07T16:38:23.394Z,-78
2023-01-07T16:40:51.288Z,-78
2023-01-07T16:43:18.992Z,-78
2023-01-07T16:45:46.710Z,-77
2023-01-07T16:48:14.441Z,-78
2023-01-07T16:50:42.192Z,-77
2023-01-07T16:53:10.415Z,-78
2023-01-07T16:55:38.159Z,-77
2023-01-07T16:58:05.870Z,-79
2023-01-07T17:00:33.652Z,-81
2023-01-07T17:03:01.416Z,-78
2023-01-07T17:05:29.167Z,-78
2023-01-07T17:08:05.111Z,-82
2023-01-07T17:10:35.190Z,-79
2023-01-07T17:13:03.062Z,-77
2023-01-07T17:15:30.838Z,-77
2023-01-07T17:17:58.681Z,-78
2023-01-07T17:20:27.727Z,-78
2023-01-07T17:22:55.465Z,-77
2023-01-07T17:25:24.490Z,-78
2023-01-07T17:27:52.271Z,-77
2023-01-07T17:30:20.069Z,-78
2023-01-07T17:32:48.304Z,-78
2023-01-07T17:35:16.145Z,-77
2023-01-07T17:37:43.916Z,-78
2023-01-07T17:40:11.660Z,-78
2023-01-07T17:42:56.780Z,-78
2023-01-07T17:45:24.523Z,-78
2023-01-07T17:47:52.870Z,-79
2023-01-07T17:50:20.638Z,-78
2023-01-07T17:52:48.377Z,-78
2023-01-07T17:55:16.249Z,-79
2023-01-07T17:57:44.033Z,-79
2023-01-07T18:00:11.764Z,-79
2023-01-07T18:02:39.625Z,-79
2023-01-07T18:05:07.435Z,-79
2023-01-07T18:07:35.171Z,-78
2023-01-07T18:10:02.954Z,-78
2023-01-07T18:12:34.542Z,-79
2023-01-07T18:15:02.366Z,-80
2023-01-07T18:17:30.105Z,-80
2023-01-07T18:19:57.866Z,-79
2023-01-07T18:22:26.364Z,-79
2023-01-07T18:24:54.161Z,-80
2023-01-07T18:27:22.580Z,-79
2023-01-07T18:29:50.315Z,-79
2023-01-07T18:32:18.051Z,-79
2023-01-07T18:34:45.840Z,-79
2023-01-07T18:37:14.957Z,-79
2023-01-07T18:39:42.663Z,-79
2023-01-07T18:42:10.463Z,-79
2023-01-07T18:44:38.224Z,-78
2023-01-07T18:47:05.966Z,-75
2023-01-07T18:49:33.692Z,-75
2023-01-07T18:52:01.455Z,-75
2023-01-07T18:54:30.877Z,-75
2023-01-07T18:56:58.665Z,-75
2023-01-07T18:59:26.489Z,-76
2023-01-07T19:01:58.039Z,-75
2023-01-07T19:04:26.030Z,-75
2023-01-07T19:06:53.868Z,-76
2023-01-07T19:09:23.076Z,-76
2023-01-07T19:11:50.885Z,-76
2023-01-07T19:14:18.666Z,-76
2023-01-07T19:16:46.411Z,-76
2023-01-07T19:19:14.412Z,-75
2023-01-07T19:21:42.766Z,-75
2023-01-07T19:24:10.537Z,-76
2023-01-07T19:26:38.376Z,-76
2023-01-07T19:29:06.192Z,-76
2023-01-07T19:31:34.174Z,-76
2023-01-07T19:34:02.924Z,-75
2023-01-07T19:36:30.686Z,-79
2023-01-07T19:38:58.537Z,-75
2023-01-07T19:41:26.522Z,-78
2023-01-07T19:43:54.293Z,-75
2023-01-07T19:46:22.118Z,-76
2023-01-07T19:48:50.062Z,-76
2023-01-07T19:51:17.809Z,-76
2023-01-07T19:53:47.748Z,-80
2023-01-07T19:56:15.571Z,-77
2023-01-07T19:58:43.303Z,-78
2023-01-07T20:01:11.148Z,-76
2023-01-07T20:03:39.182Z,-76
2023-01-07T20:06:06.948Z,-76
2023-01-07T20:08:35.283Z,-75
2023-01-07T20:11:03.027Z,-75
2023-01-07T20:13:30.793Z,-76
2023-01-07T20:15:58.677Z,-76
2023-01-07T20:18:26.545Z,-76
2023-01-07T20:20:54.385Z,-76
2023-01-07T20:23:22.173Z,-76
2023-01-07T20:25:50.068Z,-77
2023-01-07T20:28:17.889Z,-76
2023-01-07T20:30:45.671Z,-76
2023-01-07T20:33:13.430Z,-77
2023-01-07T20:35:43.257Z,-77
2023-01-07T20:38:11.494Z,-76
2023-01-07T20:40:39.190Z,-77
2023-01-07T20:43:07.067Z,-76
2023-01-07T20:45:37.361Z,-76
2023-01-07T20:48:05.923Z,-76
2023-01-07T20:50:35.739Z,-76
2023-01-07T20:53:03.467Z,-76
2023-01-07T20:55:31.174Z,-76
2023-01-07T20:57:58.924Z,-76
2023-01-07T21:00:26.708Z,-76
2023-01-07T21:02:54.498Z,-76
2023-01-07T21:05:24.460Z,-76
2023-01-07T21:07:52.218Z,-76
2023-01-07T21:10:19.966Z,-76
2023-01-07T21:12:47.740Z,-76
2023-01-07T21:15:15.521Z,-76
2023-01-07T21:17:43.239Z,-76
2023-01-07T21:20:10.960Z,-76
2023-01-07T21:22:39.161Z,-76
2023-01-07T21:25:09.307Z,-76
2023-01-07T21:27:37.047Z,-76
2023-01-07T21:30:06.105Z,-76
2023-01-07T21:32:33.955Z,-76
2023-01-07T21:35:01.689Z,-76
2023-01-07T21:37:29.499Z,-76
2023-01-07T21:39:57.257Z,-76
2023-01-07T21:42:24.948Z,-76
2023-01-07T21:44:52.715Z,-76
2023-01-07T21:47:20.392Z,-76
2023-01-07T21:49:49.658Z,-76
2023-01-07T21:52:17.382Z,-76
2023-01-07T21:54:45.111Z,-76
2023-01-07T21:57:12.824Z,-76
2023-01-07T21:59:40.515Z,-76
2023-01-07T22:02:08.458Z,-77
2023-01-07T22:04:40.448Z,-78
2023-01-07T22:07:08.190Z,-76
2023-01-07T22:09:36.038Z,-76
2023-01-07T22:12:03.798Z,-77
2023-01-07T22:14:31.574Z,-76
2023-01-07T22:16:59.346Z,-76
2023-01-07T22:19:28.589Z,-76
2023-01-07T22:21:56.392Z,-76
2023-01-07T22:24:24.129Z,-76
2023-01-07T22:26:52.764Z,-76
2023-01-07T22:29:20.455Z,-76
2023-01-07T22:31:50.952Z,-76
2023-01-07T22:34:18.995Z,-76
2023-01-07T22:36:46.774Z,-77
2023-01-07T22:39:14.438Z,-77
2023-01-07T22:41:42.139Z,-76
2023-01-07T22:44:10.332Z,-77
2023-01-07T22:46:38.016Z,-76
2023-01-07T22:49:05.696Z,-77
2023-01-07T22:51:33.417Z,-76
2023-01-07T22:54:01.346Z,-77
2023-01-07T22:56:29.201Z,-77
2023-01-07T22:58:56.918Z,-77
2023-01-07T23:01:24.732Z,-76
2023-01-07T23:03:52.644Z,-77
2023-01-07T23:06:20.493Z,-77
2023-01-07T23:08:48.211Z,-77
2023-01-07T23:11:36.244Z,-77
2023-01-07T23:14:04.035Z,-77
2023-01-07T23:16:31.864Z,-77
2023-01-07T23:18:59.604Z,-77
2023-01-07T23:21:28.200Z,-77
2023-01-07T23:23:55.924Z,-77
2023-01-07T23:26:23.625Z,-77
2023-01-07T23:28:51.348Z,-76
2023-01-07T23:31:19.125Z,-77
2023-01-07T23:33:47.243Z,-76
2023-01-07T23:36:14.951Z,-76
2023-01-07T23:38:42.693Z,-77
2023-01-07T23:41:10.372Z,-77
2023-01-07T23:43:38.227Z,-77
2023-01-07T23:46:06.145Z,-76
2023-01-07T23:48:33.938Z,-76
2023-01-07T23:51:01.848Z,-77
2023-01-07T23:53:29.606Z,-76
2023-01-07T23:55:57.386Z,-76
2023-01-07T23:58:25.169Z,-77
